Time;durP1;ratioP1;P1;durP2;ratioP2;P2;SDS_P1;SDS_P2;PMS_P1;PMS_P2;Temp;Humidity;BMP_temperature;BMP_pressure;BME280_temperature;BME280_humidity;BME280_pressure;Samples;Min_cycle;Max_cycle;Signal;HPM_P1;HPM_P2
2023/12/08 00:01:35;;;;;;;;;;;;;;;1.43;100.00;100797.25;4974322;28;20365;-73
2023/12/08 00:04:00;;;;;;;;;;;;;;;1.65;100.00;100795.47;4991869;28;19921;-73
2023/12/08 00:06:25;;;;;;;;;;;;;;;1.58;100.00;100794.00;4987973;28;20135;-73
2023/12/08 00:08:50;;;;;;;;;;;;;;;1.48;100.00;100779.41;4970347;28;19933;-73
2023/12/08 00:11:16;;;;;;;;;;;;;;;1.47;100.00;100773.25;4987956;28;20036;-73
2023/12/08 00:13:41;;;;;;;;;;;;;;;1.45;100.00;100767.19;4994957;28;19964;-73
2023/12/08 00:16:06;;;;;;;;;;;;;;;1.53;100.00;100755.41;4993762;28;20427;-73
2023/12/08 00:18:32;;;;;;;;;;;;;;;1.46;100.00;100742.44;4996837;28;19984;-73
2023/12/08 00:20:57;;;;;;;;;;;;;;;1.49;100.00;100737.00;4993582;28;20004;-73
2023/12/08 00:23:22;;;;;;;;;;;;;;;1.49;100.00;100718.47;4996973;28;19928;-73
2023/12/08 00:25:47;;;;;;;;;;;;;;;1.46;100.00;100717.75;4981721;28;20406;-73
2023/12/08 00:28:13;;;;;;;;;;;;;;;1.52;100.00;100714.00;4996720;28;20012;-73
2023/12/08 00:30:38;;;;;;;;;;;;;;;1.58;100.00;100714.63;4998336;28;19928;-73
2023/12/08 00:33:03;;;;;;;;;;;;;;;1.54;100.00;100715.66;4996937;28;19976;-72
2023/12/08 00:35:28;;;;;;;;;;;;;;;1.54;100.00;100702.44;4995581;28;20016;-73
2023/12/08 00:37:54;;;;;;;;;;;;;;;1.54;100.00;100720.09;4995376;28;19917;-73
2023/12/08 00:40:19;;;;;;;;;;;;;;;1.59;100.00;100721.59;4979067;28;19929;-73
2023/12/08 00:42:44;;;;;;;;;;;;;;;1.59;100.00;100713.66;4999354;28;19921;-73
2023/12/08 00:45:09;;;;;;;;;;;;;;;1.67;100.00;100717.78;4998721;28;19929;-73
2023/12/08 00:47:35;;;;;;;;;;;;;;;1.62;100.00;100705.59;4999561;28;19925;-73
2023/12/08 00:50:00;;;;;;;;;;;;;;;1.71;100.00;100707.00;4994818;28;19921;-73
2023/12/08 00:52:25;;;;;;;;;;;;;;;1.68;100.00;100715.09;4999429;28;20024;-72
2023/12/08 00:54:50;;;;;;;;;;;;;;;1.60;100.00;100712.72;4997666;28;19925;-73
2023/12/08 00:57:15;;;;;;;;;;;;;;;1.61;100.00;100705.66;4998839;28;19922;-73
2023/12/08 00:59:41;;;;;;;;;;;;;;;1.58;100.00;100705.81;4995672;28;19967;-73
2023/12/08 01:02:06;;;;;;;;;;;;;;;1.78;100.00;100704.94;4999871;28;20024;-72
2023/12/08 01:04:31;;;;;;;;;;;;;;;1.63;100.00;100699.38;4996280;28;19928;-73
2023/12/08 01:06:56;;;;;;;;;;;;;;;1.74;100.00;100704.19;4996006;28;19928;-73
2023/12/08 01:09:21;;;;;;;;;;;;;;;1.56;100.00;100710.28;4996676;28;19918;-72
2023/12/08 01:11:47;;;;;;;;;;;;;;;1.69;100.00;100708.88;4997424;28;19925;-73
2023/12/08 01:14:12;;;;;;;;;;;;;;;1.61;100.00;100706.53;4997191;28;19971;-73
2023/12/08 01:16:40;;;;;;;;;;;;;;;1.64;100.00;100710.84;4998087;28;19921;-73
2023/12/08 01:19:08;;;;;;;;;;;;;;;1.70;100.00;100705.28;4997006;28;19960;-73
2023/12/08 01:21:33;;;;;;;;;;;;;;;1.63;100.00;100691.44;4992825;28;20419;-72
2023/12/08 01:23:58;;;;;;;;;;;;;;;1.70;100.00;100702.66;4998030;28;19921;-73
2023/12/08 01:26:23;;;;;;;;;;;;;;;1.62;100.00;100704.75;4995701;28;20419;-72
2023/12/08 01:28:48;;;;;;;;;;;;;;;1.69;100.00;100700.03;4981198;28;19968;-73
2023/12/08 01:31:14;;;;;;;;;;;;;;;1.68;100.00;100704.50;4994282;28;19975;-73
2023/12/08 01:33:39;;;;;;;;;;;;;;;1.76;100.00;100699.72;4997246;28;20012;-74
2023/12/08 01:36:04;;;;;;;;;;;;;;;1.70;100.00;100697.34;4994747;28;20391;-73
2023/12/08 01:38:30;;;;;;;;;;;;;;;1.73;100.00;100702.47;4994580;28;20466;-72
2023/12/08 01:40:55;;;;;;;;;;;;;;;1.84;100.00;100701.16;4997043;28;19991;-73
2023/12/08 01:43:20;;;;;;;;;;;;;;;1.78;100.00;100707.59;4996461;28;19930;-73
2023/12/08 01:45:46;;;;;;;;;;;;;;;1.81;100.00;100694.22;4995971;28;20402;-74
2023/12/08 01:48:11;;;;;;;;;;;;;;;1.77;100.00;100690.84;4979907;28;20419;-73
2023/12/08 01:50:36;;;;;;;;;;;;;;;1.74;100.00;100685.69;4995014;28;19925;-73
2023/12/08 01:53:03;;;;;;;;;;;;;;;1.71;100.00;100687.59;4995024;28;19925;-73
2023/12/08 01:55:28;;;;;;;;;;;;;;;1.75;100.00;100691.84;4995992;28;19939;-73
2023/12/08 01:57:54;;;;;;;;;;;;;;;1.70;100.00;100678.81;4996465;28;19921;-73
2023/12/08 02:00:19;;;;;;;;;;;;;;;1.64;100.00;100673.78;4996042;28;19925;-74
2023/12/08 02:02:44;;;;;;;;;;;;;;;1.65;100.00;100681.66;4995222;28;19921;-73
2023/12/08 02:05:09;;;;;;;;;;;;;;;1.62;100.00;100668.53;4977796;28;20055;-73
2023/12/08 02:07:35;;;;;;;;;;;;;;;1.63;100.00;100672.91;4991487;28;19925;-74
2023/12/08 02:10:00;;;;;;;;;;;;;;;1.68;100.00;100672.72;4995811;28;19921;-75
2023/12/08 02:12:25;;;;;;;;;;;;;;;1.63;100.00;100657.03;4996030;28;19931;-73
2023/12/08 02:14:51;;;;;;;;;;;;;;;1.58;100.00;100655.50;4993621;28;19925;-74
2023/12/08 02:17:17;;;;;;;;;;;;;;;1.53;100.00;100654.84;4992230;28;19925;-74
2023/12/08 02:19:43;;;;;;;;;;;;;;;1.48;100.00;100645.31;4993420;28;19996;-74
2023/12/08 02:22:08;;;;;;;;;;;;;;;1.45;100.00;100648.13;4975197;28;19968;-73
2023/12/08 02:24:33;;;;;;;;;;;;;;;1.45;100.00;100641.94;4996161;28;19926;-75
2023/12/08 02:26:58;;;;;;;;;;;;;;;1.44;100.00;100637.59;4997571;28;19917;-74
2023/12/08 02:29:23;;;;;;;;;;;;;;;1.38;100.00;100620.19;4995537;28;19952;-74
2023/12/08 02:31:55;;;;;;;;;;;;;;;1.44;100.00;100625.22;4991166;28;19995;-74
2023/12/08 02:34:20;;;;;;;;;;;;;;;1.41;100.00;100617.44;4994865;28;20392;-75
2023/12/08 02:36:46;;;;;;;;;;;;;;;1.37;100.00;100613.19;4976461;28;20043;-75
2023/12/08 02:39:11;;;;;;;;;;;;;;;1.38;100.00;100609.63;4993952;28;20163;-75
2023/12/08 02:41:36;;;;;;;;;;;;;;;1.34;100.00;100598.28;4994510;28;19944;-75
2023/12/08 02:44:01;;;;;;;;;;;;;;;1.33;100.00;100601.00;4997376;28;19965;-75
2023/12/08 02:46:26;;;;;;;;;;;;;;;1.34;100.00;100600.09;4994634;28;19930;-76
2023/12/08 02:48:52;;;;;;;;;;;;;;;1.30;100.00;100593.22;4994933;28;20209;-76
2023/12/08 02:51:17;;;;;;;;;;;;;;;1.26;100.00;100587.19;4992208;28;20242;-76
2023/12/08 02:53:42;;;;;;;;;;;;;;;1.26;100.00;100584.56;4993282;28;20309;-76
2023/12/08 02:56:07;;;;;;;;;;;;;;;1.24;100.00;100575.81;4994368;28;20755;-76
2023/12/08 02:58:33;;;;;;;;;;;;;;;1.28;100.00;100581.84;4995084;28;21058;-76
2023/12/08 03:00:58;;;;;;;;;;;;;;;1.22;100.00;100582.97;4992041;28;19954;-76
2023/12/08 03:03:24;;;;;;;;;;;;;;;1.20;100.00;100575.06;4993521;28;19917;-76
2023/12/08 03:05:50;;;;;;;;;;;;;;;1.23;100.00;100566.16;4978383;28;19983;-76
2023/12/08 03:08:16;;;;;;;;;;;;;;;1.22;100.00;100563.56;4994660;28;19928;-76
2023/12/08 03:10:41;;;;;;;;;;;;;;;1.22;100.00;100548.56;4996734;28;19926;-77
2023/12/08 03:13:06;;;;;;;;;;;;;;;1.21;100.00;100538.94;4993470;28;19980;-76
2023/12/08 03:15:31;;;;;;;;;;;;;;;1.18;100.00;100547.88;4994585;28;20044;-76
2023/12/08 03:17:56;;;;;;;;;;;;;;;1.23;100.00;100550.31;4993879;28;20036;-76
2023/12/08 03:20:22;;;;;;;;;;;;;;;1.19;100.00;100544.25;4993637;28;19921;-76
2023/12/08 03:22:47;;;;;;;;;;;;;;;1.22;100.00;100537.13;4991680;28;20380;-76
2023/12/08 03:25:12;;;;;;;;;;;;;;;1.02;100.00;100515.94;4994934;28;20222;-76
2023/12/08 03:27:37;;;;;;;;;;;;;;;1.21;100.00;100544.22;4994750;28;20480;-75
2023/12/08 03:30:03;;;;;;;;;;;;;;;1.20;100.00;100551.28;4994892;28;19918;-75
2023/12/08 03:32:28;;;;;;;;;;;;;;;1.19;100.00;100548.72;4994140;28;19964;-76
2023/12/08 03:34:53;;;;;;;;;;;;;;;1.13;100.00;100541.91;4992334;28;20016;-75
2023/12/08 03:37:19;;;;;;;;;;;;;;;1.24;100.00;100548.50;4992258;28;19932;-75
2023/12/08 03:39:47;;;;;;;;;;;;;;;1.21;100.00;100557.44;4995328;28;19960;-75
2023/12/08 03:42:12;;;;;;;;;;;;;;;1.17;100.00;100555.84;4992679;28;20527;-74
2023/12/08 03:44:37;;;;;;;;;;;;;;;1.22;100.00;100553.00;4994941;28;19925;-75
2023/12/08 03:47:02;;;;;;;;;;;;;;;1.26;100.00;100539.59;4993286;28;19975;-73
2023/12/08 03:49:27;;;;;;;;;;;;;;;1.21;100.00;100549.50;4995309;28;20003;-76
2023/12/08 03:51:53;;;;;;;;;;;;;;;1.29;100.00;100544.75;4992588;28;19960;-74
2023/12/08 03:54:18;;;;;;;;;;;;;;;1.13;100.00;100530.47;4989914;28;20312;-75
2023/12/08 03:56:43;;;;;;;;;;;;;;;1.11;100.00;100521.72;4993617;28;20715;-76
2023/12/08 03:59:09;;;;;;;;;;;;;;;1.10;100.00;100512.94;4989455;28;19932;-76
2023/12/08 04:01:34;;;;;;;;;;;;;;;1.16;100.00;100523.28;4994568;28;20009;-75
2023/12/08 04:03:59;;;;;;;;;;;;;;;1.16;100.00;100520.63;4994592;28;20754;-75
2023/12/08 04:06:24;;;;;;;;;;;;;;;1.14;100.00;100519.84;4991944;28;20374;-75
2023/12/08 04:08:50;;;;;;;;;;;;;;;1.19;100.00;100520.47;4995409;28;20366;-75
2023/12/08 04:11:15;;;;;;;;;;;;;;;1.17;100.00;100519.69;4992566;28;19960;-75
2023/12/08 04:13:40;;;;;;;;;;;;;;;1.19;100.00;100512.53;4992826;28;19925;-74
2023/12/08 04:16:06;;;;;;;;;;;;;;;1.13;100.00;100498.72;4995320;28;19957;-74
2023/12/08 04:18:31;;;;;;;;;;;;;;;1.24;100.00;100488.53;4991011;28;20028;-72
2023/12/08 04:20:56;;;;;;;;;;;;;;;1.28;100.00;100495.41;4994321;28;20007;-73
2023/12/08 04:23:21;;;;;;;;;;;;;;;1.09;100.00;100500.66;4993871;28;19928;-75
2023/12/08 04:25:46;;;;;;;;;;;;;;;1.06;100.00;100499.94;4995175;28;19921;-73
2023/12/08 04:28:12;;;;;;;;;;;;;;;1.04;100.00;100498.22;4995321;28;20018;-74
2023/12/08 04:30:37;;;;;;;;;;;;;;;1.08;100.00;100500.72;4992924;28;20312;-74
2023/12/08 04:33:02;;;;;;;;;;;;;;;1.11;100.00;100498.81;4994309;28;20357;-74
2023/12/08 04:35:27;;;;;;;;;;;;;;;1.20;100.00;100498.38;4993252;28;20303;-73
2023/12/08 04:37:52;;;;;;;;;;;;;;;1.15;100.00;100504.81;4993214;28;19917;-73
2023/12/08 04:40:18;;;;;;;;;;;;;;;1.16;100.00;100499.47;4995230;28;19921;-75
2023/12/08 04:42:43;;;;;;;;;;;;;;;1.10;100.00;100497.09;4994954;28;20354;-74
2023/12/08 04:45:09;;;;;;;;;;;;;;;1.13;100.00;100502.25;4990534;28;19987;-75
2023/12/08 04:47:35;;;;;;;;;;;;;;;1.09;100.00;100495.38;4995281;28;19929;-74
2023/12/08 04:50:00;;;;;;;;;;;;;;;1.05;100.00;100488.50;4992667;28;20355;-74
2023/12/08 04:52:25;;;;;;;;;;;;;;;1.15;100.00;100486.28;4992699;28;19953;-75
2023/12/08 04:54:50;;;;;;;;;;;;;;;1.11;100.00;100492.63;4993268;28;20179;-74
2023/12/08 04:57:16;;;;;;;;;;;;;;;1.23;100.00;100502.69;4995531;28;19967;-74
2023/12/08 04:59:41;;;;;;;;;;;;;;;1.21;100.00;100491.31;4998126;28;20319;-74
2023/12/08 05:02:06;;;;;;;;;;;;;;;1.15;100.00;100489.81;4999880;28;20351;-74
2023/12/08 05:04:31;;;;;;;;;;;;;;;1.23;100.00;100485.94;4998063;28;20432;-73
2023/12/08 05:06:56;;;;;;;;;;;;;;;1.16;100.00;100459.81;4994935;28;20076;-74
2023/12/08 05:09:22;;;;;;;;;;;;;;;1.16;100.00;100451.00;4997836;28;19925;-74
2023/12/08 05:11:47;;;;;;;;;;;;;;;1.25;100.00;100486.75;4993811;28;20404;-74
2023/12/08 05:14:13;;;;;;;;;;;;;;;1.18;100.00;100494.09;4998149;28;20437;-74
2023/12/08 05:16:38;;;;;;;;;;;;;;;1.15;100.00;100499.50;4999156;28;19928;-73
2023/12/08 05:19:03;;;;;;;;;;;;;;;1.25;100.00;100487.63;4996030;28;20291;-74
2023/12/08 05:21:29;;;;;;;;;;;;;;;1.22;100.00;100469.22;4996126;28;20332;-74
2023/12/08 05:23:54;;;;;;;;;;;;;;;1.19;100.00;100475.50;4995890;28;19960;-74
2023/12/08 05:26:20;;;;;;;;;;;;;;;1.24;100.00;100485.91;4997131;28;19959;-73
2023/12/08 05:28:45;;;;;;;;;;;;;;;1.29;100.00;100485.69;4997970;28;20260;-73
2023/12/08 05:31:10;;;;;;;;;;;;;;;1.28;100.00;100481.31;4997103;28;19961;-73
2023/12/08 05:33:35;;;;;;;;;;;;;;;1.25;100.00;100466.47;4999679;28;20467;-74
2023/12/08 05:36:00;;;;;;;;;;;;;;;1.26;100.00;100468.19;4994580;28;20435;-73
2023/12/08 05:38:26;;;;;;;;;;;;;;;1.26;100.00;100467.31;4995030;28;19995;-74
2023/12/08 05:40:51;;;;;;;;;;;;;;;1.31;100.00;100460.03;4995420;28;19922;-74
2023/12/08 05:43:16;;;;;;;;;;;;;;;1.13;100.00;100437.91;4995369;28;20004;-73
2023/12/08 05:45:42;;;;;;;;;;;;;;;1.30;100.00;100463.59;4996192;28;19975;-73
2023/12/08 05:48:07;;;;;;;;;;;;;;;1.35;100.00;100478.31;4996880;28;19971;-74
2023/12/08 05:50:32;;;;;;;;;;;;;;;1.44;100.00;100484.13;4994596;28;20007;-73
2023/12/08 05:52:57;;;;;;;;;;;;;;;1.37;100.00;100498.56;4994902;28;20035;-73
2023/12/08 05:55:22;;;;;;;;;;;;;;;1.32;100.00;100497.00;4996832;28;19913;-73
2023/12/08 05:57:48;;;;;;;;;;;;;;;1.37;100.00;100495.91;4994402;28;19921;-74
2023/12/08 06:00:13;;;;;;;;;;;;;;;1.32;100.00;100489.06;4977987;28;19932;-74
2023/12/08 06:02:38;;;;;;;;;;;;;;;1.43;100.00;100493.00;4996051;28;19989;-73
2023/12/08 06:05:04;;;;;;;;;;;;;;;1.40;100.00;100483.44;4979149;28;20024;-74
2023/12/08 06:07:29;;;;;;;;;;;;;;;1.39;100.00;100478.19;4996244;28;19963;-73
2023/12/08 06:09:54;;;;;;;;;;;;;;;1.37;100.00;100483.56;4994775;28;19914;-73
2023/12/08 06:12:19;;;;;;;;;;;;;;;1.47;100.00;100476.06;4994391;28;19929;-74
2023/12/08 06:14:45;;;;;;;;;;;;;;;1.44;100.00;100485.00;4980312;28;20410;-73
2023/12/08 06:17:10;;;;;;;;;;;;;;;1.46;100.00;100483.13;4978644;28;19925;-73
2023/12/08 06:19:35;;;;;;;;;;;;;;;1.50;100.00;100495.28;4991320;28;19957;-73
2023/12/08 06:22:00;;;;;;;;;;;;;;;1.49;100.00;100490.09;4993775;28;20265;-72
2023/12/08 06:24:25;;;;;;;;;;;;;;;1.49;100.00;100483.00;4991484;28;22391;-74
2023/12/08 06:26:51;;;;;;;;;;;;;;;1.51;100.00;100485.56;4993099;28;20439;-73
2023/12/08 06:29:17;;;;;;;;;;;;;;;1.51;100.00;100472.34;4996112;28;20356;-73
2023/12/08 06:31:45;;;;;;;;;;;;;;;1.54;100.00;100458.09;4993174;28;19929;-73
2023/12/08 06:34:10;;;;;;;;;;;;;;;1.50;100.00;100460.03;4979168;28;19979;-74
2023/12/08 06:36:35;;;;;;;;;;;;;;;1.55;100.00;100467.75;4976666;28;19925;-73
2023/12/08 06:39:01;;;;;;;;;;;;;;;1.57;100.00;100466.78;4995694;28;19984;-73
2023/12/08 06:41:28;;;;;;;;;;;;;;;1.53;100.00;100472.25;4976128;28;20493;-73
2023/12/08 06:43:53;;;;;;;;;;;;;;;1.61;100.00;100467.50;4994776;28;20095;-73
2023/12/08 06:46:18;;;;;;;;;;;;;;;1.62;100.00;100485.09;4995542;28;19921;-73
2023/12/08 06:48:44;;;;;;;;;;;;;;;1.51;100.00;100453.81;4977621;28;19921;-73
2023/12/08 06:51:09;;;;;;;;;;;;;;;1.61;100.00;100486.84;4990776;28;19918;-74
2023/12/08 06:53:34;;;;;;;;;;;;;;;1.84;100.00;100477.00;4990278;28;19975;-73
2023/12/08 06:55:59;;;;;;;;;;;;;;;1.70;100.00;100468.84;4977436;28;19928;-73
2023/12/08 06:58:24;;;;;;;;;;;;;;;1.63;100.00;100469.13;4995963;28;19961;-73
2023/12/08 07:00:50;;;;;;;;;;;;;;;1.70;100.00;100458.25;4983133;28;20008;-73
2023/12/08 07:03:15;;;;;;;;;;;;;;;1.74;100.00;100462.47;4993390;28;19952;-73
2023/12/08 07:05:40;;;;;;;;;;;;;;;1.85;100.00;100459.31;4993529;28;20032;-73
2023/12/08 07:08:05;;;;;;;;;;;;;;;1.83;100.00;100462.06;4989502;28;19927;-73
2023/12/08 07:10:30;;;;;;;;;;;;;;;1.72;100.00;100464.34;4996535;28;19960;-74
2023/12/08 07:12:56;;;;;;;;;;;;;;;1.54;100.00;100439.59;4992035;28;19925;-73
2023/12/08 07:15:21;;;;;;;;;;;;;;;1.72;100.00;100464.34;4993748;28;20073;-73
2023/12/08 07:17:46;;;;;;;;;;;;;;;1.74;100.00;100458.03;4992272;28;19927;-73
2023/12/08 07:20:11;;;;;;;;;;;;;;;1.86;100.00;100450.44;4995725;28;19921;-73
2023/12/08 07:22:37;;;;;;;;;;;;;;;1.78;100.00;100441.06;4991364;28;19952;-73
2023/12/08 07:25:07;;;;;;;;;;;;;;;1.78;100.00;100451.66;4994718;28;19927;-73
2023/12/08 07:27:32;;;;;;;;;;;;;;;1.87;100.00;100438.94;4975250;28;20318;-73
2023/12/08 07:29:58;;;;;;;;;;;;;;;1.84;100.00;100449.66;4991239;28;20420;-73
2023/12/08 07:32:24;;;;;;;;;;;;;;;1.86;100.00;100446.00;4989722;28;19929;-73
2023/12/08 07:34:50;;;;;;;;;;;;;;;1.86;100.00;100451.28;4991839;28;20387;-73
2023/12/08 07:37:15;;;;;;;;;;;;;;;1.84;100.00;100447.00;4990075;28;19925;-73
2023/12/08 07:39:40;;;;;;;;;;;;;;;1.81;100.00;100421.56;4991282;28;20060;-73
2023/12/08 07:42:06;;;;;;;;;;;;;;;2.03;100.00;100442.53;4990878;28;20381;-72
2023/12/08 07:44:31;;;;;;;;;;;;;;;2.00;100.00;100447.13;4975628;28;19988;-73
2023/12/08 07:46:56;;;;;;;;;;;;;;;1.92;100.00;100448.34;4990364;28;19922;-73
2023/12/08 07:49:21;;;;;;;;;;;;;;;2.00;100.00;100447.13;4993619;28;19925;-73
2023/12/08 07:51:46;;;;;;;;;;;;;;;2.00;100.00;100442.69;4991644;28;19937;-73
2023/12/08 07:54:12;;;;;;;;;;;;;;;2.08;100.00;100450.28;4993419;28;20229;-73
2023/12/08 07:56:37;;;;;;;;;;;;;;;2.10;100.00;100453.72;4978629;28;20402;-73
2023/12/08 07:59:03;;;;;;;;;;;;;;;2.10;100.00;100461.66;4991655;28;19921;-74
2023/12/08 08:01:28;;;;;;;;;;;;;;;2.02;100.00;100461.16;4977162;28;19929;-73
2023/12/08 08:03:53;;;;;;;;;;;;;;;1.99;100.00;100461.31;4974396;28;19918;-73
2023/12/08 08:06:18;;;;;;;;;;;;;;;1.96;100.00;100446.44;4993499;28;20022;-73
2023/12/08 08:08:43;;;;;;;;;;;;;;;2.04;100.00;100438.97;4972671;28;19921;-73
2023/12/08 08:11:09;;;;;;;;;;;;;;;2.01;100.00;100449.69;4991326;28;21619;-73
2023/12/08 08:13:34;;;;;;;;;;;;;;;2.06;100.00;100450.34;4975286;28;19925;-73
2023/12/08 08:16:00;;;;;;;;;;;;;;;2.15;100.00;100435.78;4976088;28;20363;-73
2023/12/08 08:18:28;;;;;;;;;;;;;;;2.14;100.00;100434.06;4974456;28;20339;-73
2023/12/08 08:20:54;;;;;;;;;;;;;;;2.22;100.00;100439.84;4993610;28;19921;-73
2023/12/08 08:23:19;;;;;;;;;;;;;;;2.18;100.00;100427.69;4991600;28;20862;-73
2023/12/08 08:25:44;;;;;;;;;;;;;;;2.16;100.00;100432.22;4993040;28;20348;-73
2023/12/08 08:28:09;;;;;;;;;;;;;;;2.20;100.00;100427.63;4990606;28;19940;-73
2023/12/08 08:30:35;;;;;;;;;;;;;;;2.37;100.00;100422.34;4990485;28;19921;-74
2023/12/08 08:33:00;;;;;;;;;;;;;;;2.23;100.00;100415.09;4989808;28;19996;-75
2023/12/08 08:35:25;;;;;;;;;;;;;;;2.23;100.00;100406.28;4992240;28;20313;-74
2023/12/08 08:37:50;;;;;;;;;;;;;;;2.35;100.00;100410.13;4975297;28;19925;-73
2023/12/08 08:40:16;;;;;;;;;;;;;;;2.38;100.00;100404.66;4996484;28;19975;-73
2023/12/08 08:42:41;;;;;;;;;;;;;;;2.34;100.00;100414.53;4992509;28;19931;-73
2023/12/08 08:45:06;;;;;;;;;;;;;;;2.48;100.00;100411.19;4990555;28;20369;-73
2023/12/08 08:47:32;;;;;;;;;;;;;;;2.54;100.00;100417.97;4990362;28;20431;-73
2023/12/08 08:49:57;;;;;;;;;;;;;;;2.44;100.00;100414.94;4992872;28;20377;-73
2023/12/08 08:52:22;;;;;;;;;;;;;;;2.52;100.00;100418.06;4989647;28;20361;-73
2023/12/08 08:54:48;;;;;;;;;;;;;;;2.53;100.00;100425.06;4976909;28;20291;-74
2023/12/08 08:57:13;;;;;;;;;;;;;;;2.45;100.00;100418.44;4977598;28;20502;-74
2023/12/08 08:59:38;;;;;;;;;;;;;;;2.53;100.00;100410.94;4992287;28;20021;-73
2023/12/08 09:02:03;;;;;;;;;;;;;;;2.52;100.00;100420.72;4976962;28;19964;-73
2023/12/08 09:04:28;;;;;;;;;;;;;;;2.61;100.00;100418.53;4993402;28;20284;-73
2023/12/08 09:06:56;;;;;;;;;;;;;;;2.54;100.00;100421.50;4995232;28;19921;-73
2023/12/08 09:09:21;;;;;;;;;;;;;;;2.73;100.00;100423.19;4979288;28;20073;-73
2023/12/08 09:11:46;;;;;;;;;;;;;;;2.77;100.00;100410.66;4995503;28;20491;-73
2023/12/08 09:14:11;;;;;;;;;;;;;;;2.69;100.00;100411.03;4992698;28;20096;-73
2023/12/08 09:16:37;;;;;;;;;;;;;;;2.87;100.00;100398.59;4977830;28;20249;-72
2023/12/08 09:19:02;;;;;;;;;;;;;;;2.79;100.00;100408.75;4979451;28;20439;-73
2023/12/08 09:21:28;;;;;;;;;;;;;;;2.51;100.00;100363.34;4993951;28;20502;-73
2023/12/08 09:23:53;;;;;;;;;;;;;;;2.85;100.00;100406.66;4994400;28;19957;-73
2023/12/08 09:26:18;;;;;;;;;;;;;;;2.78;100.00;100413.19;4994930;28;20016;-73
2023/12/08 09:28:44;;;;;;;;;;;;;;;2.54;100.00;100370.25;4989748;28;19972;-73
2023/12/08 09:31:09;;;;;;;;;;;;;;;2.95;100.00;100404.38;4992342;28;19976;-73
2023/12/08 09:33:34;;;;;;;;;;;;;;;2.90;100.00;100422.31;4995923;28;19926;-73
2023/12/08 09:35:59;;;;;;;;;;;;;;;2.96;100.00;100405.22;5002264;28;19917;-73
2023/12/08 09:38:25;;;;;;;;;;;;;;;3.03;100.00;100403.97;4984841;28;19941;-73
2023/12/08 09:40:50;;;;;;;;;;;;;;;3.03;100.00;100400.47;4982674;28;19925;-72
2023/12/08 09:43:17;;;;;;;;;;;;;;;3.03;100.00;100392.50;4996762;28;21305;-73
2023/12/08 09:45:42;;;;;;;;;;;;;;;3.06;100.00;100387.88;4995041;28;19952;-73
2023/12/08 09:48:07;;;;;;;;;;;;;;;3.17;100.00;100392.59;4979445;28;20443;-73
2023/12/08 09:50:32;;;;;;;;;;;;;;;3.23;100.00;100384.31;4993153;28;19917;-73
2023/12/08 09:52:57;;;;;;;;;;;;;;;3.18;100.00;100390.81;4995211;28;19921;-73
2023/12/08 09:55:23;;;;;;;;;;;;;;;3.19;100.00;100387.19;4995576;28;19918;-73
2023/12/08 09:57:48;;;;;;;;;;;;;;;3.04;100.00;100360.56;4979386;28;20033;-73
2023/12/08 10:00:15;;;;;;;;;;;;;;;3.25;100.00;100378.91;4996545;28;19921;-73
2023/12/08 10:02:43;;;;;;;;;;;;;;;3.31;100.00;100373.28;4979064;28;19925;-74
2023/12/08 10:05:11;;;;;;;;;;;;;;;3.28;100.00;100374.31;4997295;28;19928;-72
2023/12/08 10:07:36;;;;;;;;;;;;;;;3.35;100.00;100371.31;4994959;28;19933;-74
2023/12/08 10:10:02;;;;;;;;;;;;;;;3.36;100.00;100373.00;4993240;28;19948;-72
2023/12/08 10:12:27;;;;;;;;;;;;;;;3.39;100.00;100362.22;4977664;28;19972;-72
2023/12/08 10:14:56;;;;;;;;;;;;;;;3.52;100.00;100352.66;4994482;28;19940;-72
2023/12/08 10:17:21;;;;;;;;;;;;;;;3.67;100.00;100350.06;4995410;28;20044;-73
2023/12/08 10:19:47;;;;;;;;;;;;;;;3.66;100.00;100345.69;4994383;28;19921;-73
2023/12/08 10:22:12;;;;;;;;;;;;;;;3.65;100.00;100344.00;4990528;28;19953;-73
2023/12/08 10:24:37;;;;;;;;;;;;;;;3.71;100.00;100348.97;4976800;28;19943;-72
2023/12/08 10:27:03;;;;;;;;;;;;;;;3.76;100.00;100346.91;4995935;28;19940;-73
2023/12/08 10:29:29;;;;;;;;;;;;;;;3.81;100.00;100355.47;4995327;28;19944;-73
2023/12/08 10:31:54;;;;;;;;;;;;;;;3.89;100.00;100360.34;4993751;28;19929;-74
2023/12/08 10:34:19;;;;;;;;;;;;;;;3.87;100.00;100365.72;4993142;28;19956;-73
2023/12/08 10:36:45;;;;;;;;;;;;;;;3.94;100.00;100360.94;4976269;28;20051;-73
2023/12/08 10:39:10;;;;;;;;;;;;;;;4.01;100.00;100351.63;4991810;28;19983;-74
2023/12/08 10:41:35;;;;;;;;;;;;;;;4.08;100.00;100343.31;4990156;28;20217;-73
2023/12/08 10:44:04;;;;;;;;;;;;;;;4.12;100.00;100347.50;4977959;28;19922;-73
2023/12/08 10:46:32;;;;;;;;;;;;;;;4.21;100.00;100339.00;4993056;28;19921;-73
2023/12/08 10:48:57;;;;;;;;;;;;;;;4.30;100.00;100342.91;4996166;28;20046;-73
2023/12/08 10:51:23;;;;;;;;;;;;;;;4.34;100.00;100337.31;4992420;28;20011;-73
2023/12/08 10:53:48;;;;;;;;;;;;;;;4.44;100.00;100334.09;4989400;28;20447;-73
2023/12/08 10:56:15;;;;;;;;;;;;;;;4.57;100.00;100321.78;4984120;28;19925;-73
2023/12/08 10:58:42;;;;;;;;;;;;;;;4.62;100.00;100327.66;5000415;28;19929;-73
2023/12/08 11:01:12;;;;;;;;;;;;;;;4.74;100.00;100310.09;4978743;28;19925;-73
2023/12/08 11:03:38;;;;;;;;;;;;;;;4.81;100.00;100310.56;4976804;28;19992;-73
2023/12/08 11:06:03;;;;;;;;;;;;;;;4.87;100.00;100306.69;4978462;28;20368;-73
2023/12/08 11:08:28;;;;;;;;;;;;;;;4.95;100.00;100302.59;5003184;28;20351;-73
2023/12/08 11:10:55;;;;;;;;;;;;;;;4.99;100.00;100295.25;4986077;28;20379;-73
2023/12/08 11:13:27;;;;;;;;;;;;;;;5.08;100.00;100296.47;5001055;28;19938;-74
2023/12/08 11:15:58;;;;;;;;;;;;;;;5.13;100.00;100297.03;4994974;28;20426;-73
2023/12/08 11:18:25;;;;;;;;;;;;;;;5.13;100.00;100306.84;4995653;28;19921;-73
2023/12/08 11:20:50;;;;;;;;;;;;;;;5.14;100.00;100308.56;4997594;28;19932;-73
2023/12/08 11:23:18;;;;;;;;;;;;;;;5.11;100.00;100312.25;4974236;28;19925;-73
2023/12/08 11:25:45;;;;;;;;;;;;;;;5.14;100.00;100292.59;4991278;28;19928;-73
2023/12/08 11:28:22;;;;;;;;;;;;;;;5.04;100.00;100261.25;4991013;28;20000;-72
2023/12/08 11:30:57;;;;;;;;;;;;;;;5.30;100.00;100285.31;4986887;28;22519;-72
2023/12/08 11:33:35;;;;;;;;;;;;;;;5.23;100.00;100289.31;4994549;28;19930;-72
2023/12/08 11:36:07;;;;;;;;;;;;;;;5.27;100.00;100290.00;4991691;28;19967;-72
2023/12/08 11:38:33;;;;;;;;;;;;;;;5.29;100.00;100288.09;4990873;28;19929;-72
2023/12/08 11:40:58;;;;;;;;;;;;;;;5.33;100.00;100281.59;4991628;28;19944;-72
2023/12/08 11:43:23;;;;;;;;;;;;;;;5.37;100.00;100289.31;4998764;28;19947;-73
2023/12/08 11:45:49;;;;;;;;;;;;;;;5.41;100.00;100284.63;4989245;28;19947;-72
2023/12/08 11:48:14;;;;;;;;;;;;;;;5.45;100.00;100280.81;4992955;28;19922;-73
2023/12/08 11:50:40;;;;;;;;;;;;;;;5.25;100.00;100266.13;4982928;28;20772;-73
2023/12/08 11:53:05;;;;;;;;;;;;;;;5.44;100.00;100280.91;4985064;28;19972;-72
2023/12/08 11:55:30;;;;;;;;;;;;;;;5.47;100.00;100286.03;4987862;28;19925;-72
2023/12/08 11:57:58;;;;;;;;;;;;;;;5.53;100.00;100280.31;4990162;28;19921;-72
2023/12/08 12:00:24;;;;;;;;;;;;;;;5.54;100.00;100284.69;4990360;28;19928;-72
2023/12/08 12:02:49;;;;;;;;;;;;;;;5.59;100.00;100279.03;4995490;28;19926;-73
2023/12/08 12:05:15;;;;;;;;;;;;;;;5.59;100.00;100279.91;4990923;28;19921;-73
2023/12/08 12:07:40;;;;;;;;;;;;;;;5.62;100.00;100279.72;4991144;28;19925;-72
2023/12/08 12:10:07;;;;;;;;;;;;;;;5.64;100.00;100283.13;4991750;28;19925;-72
2023/12/08 12:12:32;;;;;;;;;;;;;;;5.69;100.00;100277.47;4990292;28;20291;-73
2023/12/08 12:15:00;;;;;;;;;;;;;;;5.70;100.00;100276.53;4993162;28;19925;-72
2023/12/08 12:17:25;;;;;;;;;;;;;;;5.80;100.00;100282.09;4992552;28;19983;-72
2023/12/08 12:19:50;;;;;;;;;;;;;;;5.73;100.00;100289.66;4988844;28;19929;-73
2023/12/08 12:22:15;;;;;;;;;;;;;;;5.71;100.00;100292.41;4992337;28;20170;-73
2023/12/08 12:24:41;;;;;;;;;;;;;;;5.75;100.00;100292.19;4990211;28;19948;-73
2023/12/08 12:27:06;;;;;;;;;;;;;;;5.73;100.00;100286.97;4992385;28;19928;-72